sensor_id;sensor_type;location;lat;lon;timestamp;P1;durP1;ratioP1;P2;durP2;ratioP2
1414;SDS011;702;49.466;11.086;2023-03-14T00:02:21;1.00;;;0.80;;
1414;SDS011;702;49.466;11.086;2023-03-14T00:04:48;3.40;;;0.63;;
1414;SDS011;702;49.466;11.086;2023-03-14T00:07:15;0.77;;;0.60;;
1414;SDS011;702;49.466;11.086;2023-03-14T00:09:44;1.07;;;0.50;;
1414;SDS011;702;49.466;11.086;2023-03-14T00:12:11;1.10;;;0.53;;
1414;SDS011;702;49.466;11.086;2023-03-14T00:14:39;1.00;;;0.63;;
1414;SDS011;702;49.466;11.086;2023-03-14T00:17:07;1.67;;;0.93;;
1414;SDS011;702;49.466;11.086;2023-03-14T00:19:35;1.57;;;0.80;;
1414;SDS011;702;49.466;11.086;2023-03-14T00:22:02;1.07;;;0.57;;
1414;SDS011;702;49.466;11.086;2023-03-14T00:24:30;1.50;;;0.70;;
1414;SDS011;702;49.466;11.086;2023-03-14T00:26:59;2.17;;;0.90;;
1414;SDS011;702;49.466;11.086;2023-03-14T00:29:26;1.93;;;0.87;;
1414;SDS011;702;49.466;11.086;2023-03-14T00:31:53;2.73;;;0.90;;
1414;SDS011;702;49.466;11.086;2023-03-14T00:34:20;0.80;;;0.73;;
1414;SDS011;702;49.466;11.086;2023-03-14T00:36:48;0.87;;;0.70;;
1414;SDS011;702;49.466;11.086;2023-03-14T00:39:15;3.50;;;0.70;;
1414;SDS011;702;49.466;11.086;2023-03-14T00:41:42;1.40;;;0.50;;
1414;SDS011;702;49.466;11.086;2023-03-14T00:44:11;0.60;;;0.60;;
1414;SDS011;702;49.466;11.086;2023-03-14T00:46:38;1.40;;;0.80;;
1414;SDS011;702;49.466;11.086;2023-03-14T00:49:06;1.77;;;0.50;;
1414;SDS011;702;49.466;11.086;2023-03-14T00:51:33;0.80;;;0.50;;
1414;SDS011;702;49.466;11.086;2023-03-14T00:54:01;0.50;;;0.40;;
1414;SDS011;702;49.466;11.086;2023-03-14T00:56:28;0.80;;;0.40;;
1414;SDS011;702;49.466;11.086;2023-03-14T00:58:57;0.70;;;0.50;;
1414;SDS011;702;49.466;11.086;2023-03-14T01:01:25;0.90;;;0.50;;
1414;SDS011;702;49.466;11.086;2023-03-14T01:03:54;1.63;;;0.40;;
1414;SDS011;702;49.466;11.086;2023-03-14T01:06:23;0.50;;;0.40;;
1414;SDS011;702;49.466;11.086;2023-03-14T01:08:53;0.60;;;0.60;;
1414;SDS011;702;49.466;11.086;2023-03-14T01:11:22;1.43;;;0.60;;
1414;SDS011;702;49.466;11.086;2023-03-14T01:13:51;1.43;;;0.30;;
1414;SDS011;702;49.466;11.086;2023-03-14T01:16:20;0.47;;;0.33;;
1414;SDS011;702;49.466;11.086;2023-03-14T01:18:50;0.57;;;0.30;;
1414;SDS011;702;49.466;11.086;2023-03-14T01:21:18;0.40;;;0.30;;
1414;SDS011;702;49.466;11.086;2023-03-14T01:23:48;0.50;;;0.50;;
1414;SDS011;702;49.466;11.086;2023-03-14T01:26:17;0.50;;;0.30;;
1414;SDS011;702;49.466;11.086;2023-03-14T01:28:47;0.40;;;0.33;;
1414;SDS011;702;49.466;11.086;2023-03-14T01:31:16;0.77;;;0.47;;
1414;SDS011;702;49.466;11.086;2023-03-14T01:33:44;0.40;;;0.30;;
1414;SDS011;702;49.466;11.086;2023-03-14T01:36:14;1.07;;;0.40;;
1414;SDS011;702;49.466;11.086;2023-03-14T01:38:41;0.50;;;0.50;;
1414;SDS011;702;49.466;11.086;2023-03-14T01:41:11;0.73;;;0.50;;
1414;SDS011;702;49.466;11.086;2023-03-14T01:43:42;0.40;;;0.30;;
1414;SDS011;702;49.466;11.086;2023-03-14T01:46:13;0.40;;;0.20;;
1414;SDS011;702;49.466;11.086;2023-03-14T01:48:48;0.50;;;0.30;;
1414;SDS011;702;49.466;11.086;2023-03-14T01:51:24;0.50;;;0.30;;
1414;SDS011;702;49.466;11.086;2023-03-14T01:53:59;0.60;;;0.30;;
1414;SDS011;702;49.466;11.086;2023-03-14T01:56:33;0.60;;;0.40;;
1414;SDS011;702;49.466;11.086;2023-03-14T01:59:02;1.13;;;0.40;;
1414;SDS011;702;49.466;11.086;2023-03-14T02:01:33;0.60;;;0.30;;
1414;SDS011;702;49.466;11.086;2023-03-14T02:04:03;0.90;;;0.50;;
1414;SDS011;702;49.466;11.086;2023-03-14T02:06:35;0.40;;;0.30;;
1414;SDS011;702;49.466;11.086;2023-03-14T02:09:16;0.40;;;0.30;;
1414;SDS011;702;49.466;11.086;2023-03-14T02:11:45;0.70;;;0.30;;
1414;SDS011;702;49.466;11.086;2023-03-14T02:14:14;0.60;;;0.30;;
1414;SDS011;702;49.466;11.086;2023-03-14T02:16:53;0.73;;;0.40;;
1414;SDS011;702;49.466;11.086;2023-03-14T02:19:24;0.50;;;0.40;;
1414;SDS011;702;49.466;11.086;2023-03-14T02:22:06;0.70;;;0.40;;
1414;SDS011;702;49.466;11.086;2023-03-14T02:24:39;0.60;;;0.40;;
1414;SDS011;702;49.466;11.086;2023-03-14T02:27:13;0.67;;;0.53;;
1414;SDS011;702;49.466;11.086;2023-03-14T02:29:45;0.60;;;0.47;;
1414;SDS011;702;49.466;11.086;2023-03-14T02:32:17;0.60;;;0.30;;
1414;SDS011;702;49.466;11.086;2023-03-14T02:34:48;1.77;;;0.30;;
1414;SDS011;702;49.466;11.086;2023-03-14T02:37:20;0.83;;;0.40;;
1414;SDS011;702;49.466;11.086;2023-03-14T02:39:52;1.17;;;0.40;;
1414;SDS011;702;49.466;11.086;2023-03-14T02:42:21;0.50;;;0.37;;
1414;SDS011;702;49.466;11.086;2023-03-14T02:44:50;0.40;;;0.30;;
1414;SDS011;702;49.466;11.086;2023-03-14T02:47:22;0.40;;;0.30;;
1414;SDS011;702;49.466;11.086;2023-03-14T02:49:55;0.70;;;0.60;;
1414;SDS011;702;49.466;11.086;2023-03-14T02:52:28;0.67;;;0.50;;
1414;SDS011;702;49.466;11.086;2023-03-14T02:54:56;0.83;;;0.30;;
1414;SDS011;702;49.466;11.086;2023-03-14T02:57:25;1.07;;;0.50;;
1414;SDS011;702;49.466;11.086;2023-03-14T02:59:52;0.60;;;0.50;;
1414;SDS011;702;49.466;11.086;2023-03-14T03:02:19;0.60;;;0.47;;
1414;SDS011;702;49.466;11.086;2023-03-14T03:04:47;1.07;;;0.60;;
1414;SDS011;702;49.466;11.086;2023-03-14T03:07:14;0.70;;;0.70;;
1414;SDS011;702;49.466;11.086;2023-03-14T03:09:41;0.93;;;0.60;;
1414;SDS011;702;49.466;11.086;2023-03-14T03:12:09;2.20;;;0.67;;
1414;SDS011;702;49.466;11.086;2023-03-14T03:14:38;1.03;;;0.50;;
1414;SDS011;702;49.466;11.086;2023-03-14T03:17:05;1.77;;;0.40;;
1414;SDS011;702;49.466;11.086;2023-03-14T03:19:33;0.60;;;0.30;;
1414;SDS011;702;49.466;11.086;2023-03-14T03:22:00;0.87;;;0.40;;
1414;SDS011;702;49.466;11.086;2023-03-14T03:24:28;0.50;;;0.40;;
1414;SDS011;702;49.466;11.086;2023-03-14T03:26:55;2.53;;;0.37;;
1414;SDS011;702;49.466;11.086;2023-03-14T03:29:22;0.73;;;0.33;;
1414;SDS011;702;49.466;11.086;2023-03-14T03:31:51;1.80;;;0.50;;
1414;SDS011;702;49.466;11.086;2023-03-14T03:34:18;0.60;;;0.40;;
1414;SDS011;702;49.466;11.086;2023-03-14T03:36:46;0.60;;;0.50;;
1414;SDS011;702;49.466;11.086;2023-03-14T03:39:14;0.43;;;0.33;;
1414;SDS011;702;49.466;11.086;2023-03-14T03:41:41;0.50;;;0.37;;
1414;SDS011;702;49.466;11.086;2023-03-14T03:44:08;1.60;;;0.50;;
1414;SDS011;702;49.466;11.086;2023-03-14T03:46:37;0.40;;;0.40;;
1414;SDS011;702;49.466;11.086;2023-03-14T03:49:06;2.83;;;0.43;;
1414;SDS011;702;49.466;11.086;2023-03-14T03:51:35;0.90;;;0.50;;
1414;SDS011;702;49.466;11.086;2023-03-14T03:54:02;1.50;;;1.40;;
1414;SDS011;702;49.466;11.086;2023-03-14T03:56:29;1.50;;;0.30;;
1414;SDS011;702;49.466;11.086;2023-03-14T03:58:57;0.70;;;0.53;;
1414;SDS011;702;49.466;11.086;2023-03-14T04:01:24;0.40;;;0.30;;
1414;SDS011;702;49.466;11.086;2023-03-14T04:03:52;0.50;;;0.40;;
1414;SDS011;702;49.466;11.086;2023-03-14T04:06:20;0.50;;;0.40;;
1414;SDS011;702;49.466;11.086;2023-03-14T04:08:49;1.13;;;0.50;;
1414;SDS011;702;49.466;11.086;2023-03-14T04:11:16;1.07;;;0.47;;
1414;SDS011;702;49.466;11.086;2023-03-14T04:13:43;1.30;;;0.57;;
1414;SDS011;702;49.466;11.086;2023-03-14T04:16:12;1.33;;;1.20;;
1414;SDS011;702;49.466;11.086;2023-03-14T04:18:43;1.07;;;0.43;;
1414;SDS011;702;49.466;11.086;2023-03-14T04:21:11;0.60;;;0.60;;
1414;SDS011;702;49.466;11.086;2023-03-14T04:23:39;0.90;;;0.40;;
1414;SDS011;702;49.466;11.086;2023-03-14T04:26:06;0.77;;;0.50;;
1414;SDS011;702;49.466;11.086;2023-03-14T04:28:33;2.83;;;0.60;;
1414;SDS011;702;49.466;11.086;2023-03-14T04:31:06;1.10;;;0.43;;
1414;SDS011;702;49.466;11.086;2023-03-14T04:33:34;2.20;;;0.50;;
1414;SDS011;702;49.466;11.086;2023-03-14T04:36:02;0.63;;;0.60;;
1414;SDS011;702;49.466;11.086;2023-03-14T04:38:31;0.70;;;0.53;;
1414;SDS011;702;49.466;11.086;2023-03-14T04:41:00;0.50;;;0.40;;
1414;SDS011;702;49.466;11.086;2023-03-14T04:43:27;1.00;;;0.53;;
1414;SDS011;702;49.466;11.086;2023-03-14T04:45:55;0.50;;;0.50;;
1414;SDS011;702;49.466;11.086;2023-03-14T04:48:24;0.70;;;0.50;;
1414;SDS011;702;49.466;11.086;2023-03-14T04:50:52;0.47;;;0.47;;
1414;SDS011;702;49.466;11.086;2023-03-14T04:53:19;0.90;;;0.47;;
1414;SDS011;702;49.466;11.086;2023-03-14T04:55:48;0.70;;;0.40;;
1414;SDS011;702;49.466;11.086;2023-03-14T04:58:17;1.10;;;0.47;;
1414;SDS011;702;49.466;11.086;2023-03-14T05:00:45;1.17;;;0.67;;
1414;SDS011;702;49.466;11.086;2023-03-14T05:03:13;0.93;;;0.70;;
1414;SDS011;702;49.466;11.086;2023-03-14T05:05:41;2.03;;;0.60;;
1414;SDS011;702;49.466;11.086;2023-03-14T05:08:10;0.90;;;0.67;;
1414;SDS011;702;49.466;11.086;2023-03-14T05:10:37;1.93;;;1.40;;
1414;SDS011;702;49.466;11.086;2023-03-14T05:13:05;0.70;;;0.60;;
1414;SDS011;702;49.466;11.086;2023-03-14T05:15:33;0.60;;;0.50;;
1414;SDS011;702;49.466;11.086;2023-03-14T05:18:00;0.67;;;0.43;;
1414;SDS011;702;49.466;11.086;2023-03-14T05:20:28;0.57;;;0.43;;
1414;SDS011;702;49.466;11.086;2023-03-14T05:22:56;0.70;;;0.63;;
1414;SDS011;702;49.466;11.086;2023-03-14T05:25:24;1.43;;;0.40;;
1414;SDS011;702;49.466;11.086;2023-03-14T05:27:53;0.97;;;0.63;;
1414;SDS011;702;49.466;11.086;2023-03-14T05:30:23;0.77;;;0.60;;
1414;SDS011;702;49.466;11.086;2023-03-14T05:32:53;0.63;;;0.50;;
1414;SDS011;702;49.466;11.086;2023-03-14T05:35:20;0.60;;;0.50;;
1414;SDS011;702;49.466;11.086;2023-03-14T05:37:47;0.97;;;0.80;;
1414;SDS011;702;49.466;11.086;2023-03-14T05:40:15;0.73;;;0.50;;
1414;SDS011;702;49.466;11.086;2023-03-14T05:42:42;0.63;;;0.63;;
1414;SDS011;702;49.466;11.086;2023-03-14T05:45:10;1.70;;;0.70;;
1414;SDS011;702;49.466;11.086;2023-03-14T05:47:38;1.50;;;1.40;;
1414;SDS011;702;49.466;11.086;2023-03-14T05:50:07;0.97;;;0.67;;
1414;SDS011;702;49.466;11.086;2023-03-14T05:52:36;0.67;;;0.67;;
1414;SDS011;702;49.466;11.086;2023-03-14T05:55:03;1.60;;;0.80;;
1414;SDS011;702;49.466;11.086;2023-03-14T05:57:31;1.50;;;1.10;;
1414;SDS011;702;49.466;11.086;2023-03-14T05:59:59;1.40;;;1.10;;
1414;SDS011;702;49.466;11.086;2023-03-14T06:02:26;1.10;;;1.00;;
1414;SDS011;702;49.466;11.086;2023-03-14T06:04:56;2.23;;;1.30;;
1414;SDS011;702;49.466;11.086;2023-03-14T06:07:24;1.00;;;1.00;;
1414;SDS011;702;49.466;11.086;2023-03-14T06:09:52;1.60;;;0.97;;
1414;SDS011;702;49.466;11.086;2023-03-14T06:12:19;1.17;;;0.73;;
1414;SDS011;702;49.466;11.086;2023-03-14T06:14:46;0.70;;;0.70;;
1414;SDS011;702;49.466;11.086;2023-03-14T06:17:13;1.10;;;0.83;;
1414;SDS011;702;49.466;11.086;2023-03-14T06:19:40;5.00;;;1.37;;
1414;SDS011;702;49.466;11.086;2023-03-14T06:22:09;1.20;;;1.00;;
1414;SDS011;702;49.466;11.086;2023-03-14T06:24:38;1.03;;;0.77;;
1414;SDS011;702;49.466;11.086;2023-03-14T06:27:05;1.10;;;0.87;;
1414;SDS011;702;49.466;11.086;2023-03-14T06:29:32;1.20;;;0.90;;
1414;SDS011;702;49.466;11.086;2023-03-14T06:32:00;1.27;;;0.93;;
1414;SDS011;702;49.466;11.086;2023-03-14T06:34:27;0.80;;;0.80;;
1414;SDS011;702;49.466;11.086;2023-03-14T06:36:55;1.10;;;0.80;;
1414;SDS011;702;49.466;11.086;2023-03-14T06:39:22;2.13;;;1.10;;
1414;SDS011;702;49.466;11.086;2023-03-14T06:41:51;1.10;;;0.90;;
1414;SDS011;702;49.466;11.086;2023-03-14T06:44:18;1.50;;;1.00;;
1414;SDS011;702;49.466;11.086;2023-03-14T06:46:45;2.90;;;1.03;;
1414;SDS011;702;49.466;11.086;2023-03-14T06:49:12;1.20;;;1.07;;
1414;SDS011;702;49.466;11.086;2023-03-14T06:51:39;1.73;;;1.20;;
1414;SDS011;702;49.466;11.086;2023-03-14T06:54:07;3.00;;;1.10;;
1414;SDS011;702;49.466;11.086;2023-03-14T06:56:34;1.10;;;1.00;;
1414;SDS011;702;49.466;11.086;2023-03-14T06:59:02;5.03;;;1.10;;
1414;SDS011;702;49.466;11.086;2023-03-14T07:01:30;1.50;;;1.30;;
1414;SDS011;702;49.466;11.086;2023-03-14T07:04:00;1.40;;;1.30;;
1414;SDS011;702;49.466;11.086;2023-03-14T07:06:27;1.50;;;1.20;;
1414;SDS011;702;49.466;11.086;2023-03-14T07:08:55;1.93;;;1.07;;
1414;SDS011;702;49.466;11.086;2023-03-14T07:11:23;2.10;;;1.13;;
1414;SDS011;702;49.466;11.086;2023-03-14T07:13:50;2.20;;;1.37;;
1414;SDS011;702;49.466;11.086;2023-03-14T07:16:19;1.37;;;1.17;;
1414;SDS011;702;49.466;11.086;2023-03-14T07:18:46;1.40;;;0.80;;
1414;SDS011;702;49.466;11.086;2023-03-14T07:21:14;1.40;;;1.30;;
1414;SDS011;702;49.466;11.086;2023-03-14T07:23:42;2.57;;;1.30;;
1414;SDS011;702;49.466;11.086;2023-03-14T07:26:10;1.30;;;1.17;;
1414;SDS011;702;49.466;11.086;2023-03-14T07:28:37;1.97;;;1.40;;
1414;SDS011;702;49.466;11.086;2023-03-14T07:31:04;3.93;;;1.50;;
1414;SDS011;702;49.466;11.086;2023-03-14T07:33:34;3.57;;;1.80;;
1414;SDS011;702;49.466;11.086;2023-03-14T07:36:02;1.80;;;1.30;;
1414;SDS011;702;49.466;11.086;2023-03-14T07:38:30;1.70;;;1.40;;
1414;SDS011;702;49.466;11.086;2023-03-14T07:40:58;1.90;;;1.30;;
1414;SDS011;702;49.466;11.086;2023-03-14T07:43:26;4.03;;;1.30;;
1414;SDS011;702;49.466;11.086;2023-03-14T07:45:53;2.30;;;1.43;;
1414;SDS011;702;49.466;11.086;2023-03-14T07:48:21;1.43;;;1.33;;
1414;SDS011;702;49.466;11.086;2023-03-14T07:50:51;1.40;;;1.30;;
1414;SDS011;702;49.466;11.086;2023-03-14T07:53:20;2.40;;;1.67;;
1414;SDS011;702;49.466;11.086;2023-03-14T07:55:50;3.00;;;1.23;;
1414;SDS011;702;49.466;11.086;2023-03-14T07:58:17;1.27;;;1.07;;
1414;SDS011;702;49.466;11.086;2023-03-14T08:00:45;4.70;;;1.53;;
1414;SDS011;702;49.466;11.086;2023-03-14T08:03:12;1.50;;;1.27;;
1414;SDS011;702;49.466;11.086;2023-03-14T08:05:39;0.83;;;0.83;;
1414;SDS011;702;49.466;11.086;2023-03-14T08:08:08;1.43;;;1.33;;
1414;SDS011;702;49.466;11.086;2023-03-14T08:10:36;3.13;;;1.30;;
1414;SDS011;702;49.466;11.086;2023-03-14T08:13:03;1.23;;;1.13;;
1414;SDS011;702;49.466;11.086;2023-03-14T08:15:30;1.77;;;1.40;;
1414;SDS011;702;49.466;11.086;2023-03-14T08:17:57;1.47;;;1.33;;
1414;SDS011;702;49.466;11.086;2023-03-14T08:20:26;1.90;;;1.40;;
1414;SDS011;702;49.466;11.086;2023-03-14T08:22:55;1.33;;;1.23;;
1414;SDS011;702;49.466;11.086;2023-03-14T08:25:25;1.67;;;1.43;;
1414;SDS011;702;49.466;11.086;2023-03-14T08:27:54;1.47;;;0.90;;
1414;SDS011;702;49.466;11.086;2023-03-14T08:30:21;1.90;;;1.10;;
1414;SDS011;702;49.466;11.086;2023-03-14T08:32:49;4.07;;;1.70;;
1414;SDS011;702;49.466;11.086;2023-03-14T08:35:16;1.90;;;1.23;;
1414;SDS011;702;49.466;11.086;2023-03-14T08:37:44;1.83;;;1.20;;
1414;SDS011;702;49.466;11.086;2023-03-14T08:40:12;4.53;;;1.00;;
1414;SDS011;702;49.466;11.086;2023-03-14T08:42:42;2.07;;;1.10;;
1414;SDS011;702;49.466;11.086;2023-03-14T08:45:10;1.20;;;1.00;;
1414;SDS011;702;49.466;11.086;2023-03-14T08:47:40;1.43;;;1.00;;
1414;SDS011;702;49.466;11.086;2023-03-14T08:50:10;1.30;;;0.80;;
1414;SDS011;702;49.466;11.086;2023-03-14T08:52:38;1.20;;;0.80;;
1414;SDS011;702;49.466;11.086;2023-03-14T08:55:07;1.10;;;0.90;;
1414;SDS011;702;49.466;11.086;2023-03-14T08:57:35;1.13;;;0.63;;
1414;SDS011;702;49.466;11.086;2023-03-14T09:00:05;7.13;;;1.67;;
1414;SDS011;702;49.466;11.086;2023-03-14T09:02:37;2.27;;;0.97;;
1414;SDS011;702;49.466;11.086;2023-03-14T09:05:05;2.07;;;1.10;;
1414;SDS011;702;49.466;11.086;2023-03-14T09:07:34;1.70;;;0.80;;
1414;SDS011;702;49.466;11.086;2023-03-14T09:10:01;1.70;;;1.10;;
1414;SDS011;702;49.466;11.086;2023-03-14T09:12:29;1.23;;;1.03;;
1414;SDS011;702;49.466;11.086;2023-03-14T09:14:56;2.27;;;0.80;;
1414;SDS011;702;49.466;11.086;2023-03-14T09:17:25;1.47;;;0.80;;
1414;SDS011;702;49.466;11.086;2023-03-14T09:19:53;2.30;;;0.90;;
1414;SDS011;702;49.466;11.086;2023-03-14T09:22:20;3.40;;;1.30;;
1414;SDS011;702;49.466;11.086;2023-03-14T09:24:47;1.80;;;0.80;;
1414;SDS011;702;49.466;11.086;2023-03-14T09:27:15;1.87;;;1.00;;
1414;SDS011;702;49.466;11.086;2023-03-14T09:29:42;2.47;;;0.77;;
1414;SDS011;702;49.466;11.086;2023-03-14T09:32:09;1.83;;;0.80;;
1414;SDS011;702;49.466;11.086;2023-03-14T09:34:38;3.17;;;0.80;;
1414;SDS011;702;49.466;11.086;2023-03-14T09:37:05;2.67;;;1.00;;
1414;SDS011;702;49.466;11.086;2023-03-14T09:39:32;2.40;;;1.07;;
1414;SDS011;702;49.466;11.086;2023-03-14T09:42:01;3.20;;;1.40;;
1414;SDS011;702;49.466;11.086;2023-03-14T09:44:33;3.57;;;1.30;;
1414;SDS011;702;49.466;11.086;2023-03-14T09:47:05;2.63;;;1.40;;
1414;SDS011;702;49.466;11.086;2023-03-14T09:49:39;2.80;;;1.23;;
1414;SDS011;702;49.466;11.086;2023-03-14T09:52:07;2.33;;;1.43;;
1414;SDS011;702;49.466;11.086;2023-03-14T09:54:42;4.43;;;1.30;;
1414;SDS011;702;49.466;11.086;2023-03-14T09:57:13;2.47;;;0.90;;
1414;SDS011;702;49.466;11.086;2023-03-14T09:59:45;4.20;;;1.20;;
1414;SDS011;702;49.466;11.086;2023-03-14T10:02:15;9.77;;;2.10;;
1414;SDS011;702;49.466;11.086;2023-03-14T10:04:47;1.90;;;0.70;;
1414;SDS011;702;49.466;11.086;2023-03-14T10:07:19;1.50;;;0.70;;
1414;SDS011;702;49.466;11.086;2023-03-14T10:09:53;1.87;;;1.23;;
1414;SDS011;702;49.466;11.086;2023-03-14T10:12:30;2.83;;;0.70;;
1414;SDS011;702;49.466;11.086;2023-03-14T10:14:58;2.57;;;0.80;;
1414;SDS011;702;49.466;11.086;2023-03-14T10:17:38;1.43;;;0.83;;
1414;SDS011;702;49.466;11.086;2023-03-14T10:20:14;1.23;;;0.77;;
1414;SDS011;702;49.466;11.086;2023-03-14T10:23:03;4.67;;;1.30;;
1414;SDS011;702;49.466;11.086;2023-03-14T10:25:34;2.93;;;1.90;;
1414;SDS011;702;49.466;11.086;2023-03-14T10:28:03;0.87;;;0.73;;
1414;SDS011;702;49.466;11.086;2023-03-14T10:30:38;1.27;;;0.80;;
1414;SDS011;702;49.466;11.086;2023-03-14T10:33:11;1.47;;;0.70;;
1414;SDS011;702;49.466;11.086;2023-03-14T10:35:51;1.60;;;0.90;;
1414;SDS011;702;49.466;11.086;2023-03-14T10:38:20;2.83;;;0.80;;
1414;SDS011;702;49.466;11.086;2023-03-14T10:40:51;2.10;;;1.00;;
1414;SDS011;702;49.466;11.086;2023-03-14T10:43:22;1.17;;;0.67;;
1414;SDS011;702;49.466;11.086;2023-03-14T10:45:52;1.73;;;0.63;;
1414;SDS011;702;49.466;11.086;2023-03-14T10:48:24;1.33;;;0.50;;
1414;SDS011;702;49.466;11.086;2023-03-14T10:51:03;1.83;;;0.80;;
1414;SDS011;702;49.466;11.086;2023-03-14T10:53:34;2.63;;;0.83;;
1414;SDS011;702;49.466;11.086;2023-03-14T10:56:11;2.10;;;0.60;;
1414;SDS011;702;49.466;11.086;2023-03-14T10:58:40;0.83;;;0.60;;
1414;SDS011;702;49.466;11.086;2023-03-14T11:01:14;1.23;;;0.93;;
1414;SDS011;702;49.466;11.086;2023-03-14T11:03:56;5.10;;;0.70;;
1414;SDS011;702;49.466;11.086;2023-03-14T11:06:31;0.90;;;0.77;;
1414;SDS011;702;49.466;11.086;2023-03-14T11:09:05;1.40;;;0.60;;
1414;SDS011;702;49.466;11.086;2023-03-14T11:11:39;1.40;;;0.60;;
1414;SDS011;702;49.466;11.086;2023-03-14T11:14:14;1.30;;;0.80;;
1414;SDS011;702;49.466;11.086;2023-03-14T11:16:52;2.23;;;0.80;;
1414;SDS011;702;49.466;11.086;2023-03-14T11:19:32;1.73;;;0.60;;
1414;SDS011;702;49.466;11.086;2023-03-14T11:22:14;2.07;;;0.80;;
1414;SDS011;702;49.466;11.086;2023-03-14T11:24:50;0.90;;;0.60;;
1414;SDS011;702;49.466;11.086;2023-03-14T11:27:34;2.07;;;0.60;;
1414;SDS011;702;49.466;11.086;2023-03-14T11:30:19;1.00;;;0.60;;
1414;SDS011;702;49.466;11.086;2023-03-14T11:32:53;1.00;;;0.60;;
1414;SDS011;702;49.466;11.086;2023-03-14T11:35:28;0.77;;;0.60;;
1414;SDS011;702;49.466;11.086;2023-03-14T11:38:04;0.73;;;0.60;;
1414;SDS011;702;49.466;11.086;2023-03-14T11:40:40;2.20;;;0.60;;
1414;SDS011;702;49.466;11.086;2023-03-14T11:43:10;1.10;;;0.50;;
1414;SDS011;702;49.466;11.086;2023-03-14T11:45:42;0.93;;;0.50;;
1414;SDS011;702;49.466;11.086;2023-03-14T11:48:14;1.07;;;0.40;;
1414;SDS011;702;49.466;11.086;2023-03-14T11:50:52;1.20;;;0.50;;
1414;SDS011;702;49.466;11.086;2023-03-14T11:53:25;1.00;;;0.60;;
1414;SDS011;702;49.466;11.086;2023-03-14T11:56:08;1.60;;;0.60;;
1414;SDS011;702;49.466;11.086;2023-03-14T11:58:50;1.50;;;0.57;;
1414;SDS011;702;49.466;11.086;2023-03-14T12:01:26;3.03;;;0.50;;
1414;SDS011;702;49.466;11.086;2023-03-14T12:04:05;0.97;;;0.40;;
1414;SDS011;702;49.466;11.086;2023-03-14T12:06:40;1.13;;;0.50;;
1414;SDS011;702;49.466;11.086;2023-03-14T12:09:17;1.10;;;0.80;;
1414;SDS011;702;49.466;11.086;2023-03-14T12:11:47;1.00;;;0.60;;
1414;SDS011;702;49.466;11.086;2023-03-14T12:14:23;1.30;;;0.50;;
1414;SDS011;702;49.466;11.086;2023-03-14T12:16:54;7.10;;;1.10;;
1414;SDS011;702;49.466;11.086;2023-03-14T12:19:34;1.20;;;0.50;;
1414;SDS011;702;49.466;11.086;2023-03-14T12:22:08;1.90;;;0.40;;
1414;SDS011;702;49.466;11.086;2023-03-14T12:24:50;0.47;;;0.30;;
1414;SDS011;702;49.466;11.086;2023-03-14T12:30:24;0.50;;;0.30;;
1414;SDS011;702;49.466;11.086;2023-03-14T12:35:57;0.80;;;0.40;;
1414;SDS011;702;49.466;11.086;2023-03-14T12:38:43;1.40;;;0.30;;
1414;SDS011;702;49.466;11.086;2023-03-14T12:41:21;0.43;;;0.30;;
1414;SDS011;702;49.466;11.086;2023-03-14T12:43:53;3.83;;;0.40;;
1414;SDS011;702;49.466;11.086;2023-03-14T12:46:22;0.90;;;0.40;;
1414;SDS011;702;49.466;11.086;2023-03-14T12:48:54;0.80;;;0.40;;
1414;SDS011;702;49.466;11.086;2023-03-14T12:51:34;2.50;;;0.40;;
1414;SDS011;702;49.466;11.086;2023-03-14T12:57:08;0.70;;;0.30;;
1414;SDS011;702;49.466;11.086;2023-03-14T12:59:46;2.43;;;0.47;;
1414;SDS011;702;49.466;11.086;2023-03-14T13:02:20;0.60;;;0.30;;
1414;SDS011;702;49.466;11.086;2023-03-14T13:04:52;0.40;;;0.27;;
1414;SDS011;702;49.466;11.086;2023-03-14T13:07:30;1.17;;;0.50;;
1414;SDS011;702;49.466;11.086;2023-03-14T13:10:03;0.60;;;0.30;;
1414;SDS011;702;49.466;11.086;2023-03-14T13:12:49;0.70;;;0.33;;
1414;SDS011;702;49.466;11.086;2023-03-14T13:15:25;0.63;;;0.50;;
1414;SDS011;702;49.466;11.086;2023-03-14T13:18:03;1.03;;;0.50;;
1414;SDS011;702;49.466;11.086;2023-03-14T13:20:37;0.80;;;0.40;;
1414;SDS011;702;49.466;11.086;2023-03-14T13:23:19;0.60;;;0.33;;
1414;SDS011;702;49.466;11.086;2023-03-14T13:25:47;1.27;;;0.50;;
1414;SDS011;702;49.466;11.086;2023-03-14T13:28:16;0.90;;;0.57;;
1414;SDS011;702;49.466;11.086;2023-03-14T13:30:45;1.83;;;0.40;;
1414;SDS011;702;49.466;11.086;2023-03-14T13:33:15;0.53;;;0.30;;
1414;SDS011;702;49.466;11.086;2023-03-14T13:35:45;1.43;;;0.60;;
1414;SDS011;702;49.466;11.086;2023-03-14T13:38:18;1.10;;;0.60;;
1414;SDS011;702;49.466;11.086;2023-03-14T13:40:48;1.90;;;0.50;;
1414;SDS011;702;49.466;11.086;2023-03-14T13:43:19;0.50;;;0.40;;
1414;SDS011;702;49.466;11.086;2023-03-14T13:45:51;0.40;;;0.30;;
1414;SDS011;702;49.466;11.086;2023-03-14T13:48:21;0.50;;;0.30;;
1414;SDS011;702;49.466;11.086;2023-03-14T13:50:53;0.90;;;0.60;;
1414;SDS011;702;49.466;11.086;2023-03-14T13:53:23;1.53;;;0.40;;
1414;SDS011;702;49.466;11.086;2023-03-14T13:55:51;1.53;;;0.80;;
1414;SDS011;702;49.466;11.086;2023-03-14T13:58:20;0.80;;;0.50;;
1414;SDS011;702;49.466;11.086;2023-03-14T14:01:00;2.73;;;0.70;;
1414;SDS011;702;49.466;11.086;2023-03-14T14:03:32;0.50;;;0.50;;
1414;SDS011;702;49.466;11.086;2023-03-14T14:06:03;1.20;;;0.70;;
1414;SDS011;702;49.466;11.086;2023-03-14T14:08:39;0.93;;;0.60;;
1414;SDS011;702;49.466;11.086;2023-03-14T14:11:08;0.50;;;0.40;;
1414;SDS011;702;49.466;11.086;2023-03-14T14:13:50;0.63;;;0.40;;
1414;SDS011;702;49.466;11.086;2023-03-14T14:16:18;3.13;;;0.47;;
1414;SDS011;702;49.466;11.086;2023-03-14T14:18:50;0.80;;;0.60;;
1414;SDS011;702;49.466;11.086;2023-03-14T14:21:18;0.50;;;0.40;;
1414;SDS011;702;49.466;11.086;2023-03-14T14:23:46;0.83;;;0.50;;
1414;SDS011;702;49.466;11.086;2023-03-14T14:26:14;1.23;;;0.57;;
1414;SDS011;702;49.466;11.086;2023-03-14T14:28:44;1.03;;;0.70;;
1414;SDS011;702;49.466;11.086;2023-03-14T14:31:19;0.60;;;0.60;;
1414;SDS011;702;49.466;11.086;2023-03-14T14:33:54;0.90;;;0.50;;
1414;SDS011;702;49.466;11.086;2023-03-14T14:36:24;1.20;;;0.70;;
1414;SDS011;702;49.466;11.086;2023-03-14T14:38:57;0.60;;;0.60;;
1414;SDS011;702;49.466;11.086;2023-03-14T14:41:27;1.27;;;0.70;;
1414;SDS011;702;49.466;11.086;2023-03-14T14:43:56;1.33;;;0.60;;
1414;SDS011;702;49.466;11.086;2023-03-14T14:46:30;1.57;;;0.50;;
1414;SDS011;702;49.466;11.086;2023-03-14T14:49:02;0.57;;;0.50;;
1414;SDS011;702;49.466;11.086;2023-03-14T14:51:33;0.60;;;0.40;;
1414;SDS011;702;49.466;11.086;2023-03-14T14:54:11;0.40;;;0.30;;
1414;SDS011;702;49.466;11.086;2023-03-14T14:56:44;0.63;;;0.60;;
1414;SDS011;702;49.466;11.086;2023-03-14T14:59:20;0.53;;;0.33;;
1414;SDS011;702;49.466;11.086;2023-03-14T15:01:55;0.93;;;0.70;;
1414;SDS011;702;49.466;11.086;2023-03-14T15:04:24;0.50;;;0.47;;
1414;SDS011;702;49.466;11.086;2023-03-14T15:06:52;2.40;;;0.50;;
1414;SDS011;702;49.466;11.086;2023-03-14T15:09:19;0.60;;;0.60;;
1414;SDS011;702;49.466;11.086;2023-03-14T15:11:47;1.10;;;0.60;;
1414;SDS011;702;49.466;11.086;2023-03-14T15:14:15;1.33;;;1.10;;
1414;SDS011;702;49.466;11.086;2023-03-14T15:16:42;1.03;;;0.93;;
1414;SDS011;702;49.466;11.086;2023-03-14T15:19:13;1.20;;;1.10;;
1414;SDS011;702;49.466;11.086;2023-03-14T15:21:46;2.93;;;1.20;;
1414;SDS011;702;49.466;11.086;2023-03-14T15:24:14;1.43;;;1.00;;
1414;SDS011;702;49.466;11.086;2023-03-14T15:26:41;1.77;;;1.13;;
1414;SDS011;702;49.466;11.086;2023-03-14T15:29:09;2.87;;;1.00;;
1414;SDS011;702;49.466;11.086;2023-03-14T15:31:37;1.93;;;1.70;;
1414;SDS011;702;49.466;11.086;2023-03-14T15:34:05;2.07;;;1.70;;
1414;SDS011;702;49.466;11.086;2023-03-14T15:36:34;1.93;;;1.83;;
1414;SDS011;702;49.466;11.086;2023-03-14T15:39:02;2.10;;;1.90;;
1414;SDS011;702;49.466;11.086;2023-03-14T15:41:31;2.33;;;1.80;;
1414;SDS011;702;49.466;11.086;2023-03-14T15:43:59;2.00;;;1.80;;